Time;durP1;ratioP1;P1;durP2;ratioP2;P2;SDS_P1;SDS_P2;PMS_P1;PMS_P2;Temp;Humidity;BMP_temperature;BMP_pressure;BME280_temperature;BME280_humidity;BME280_pressure;Samples;Min_cycle;Max_cycle;Signal;HPM_P1;HPM_P2
2023/09/06 00:01:04;;;;;;;;;;;21.20;57.70;;;;;;5031439;28;19924;-67
2023/09/06 00:03:30;;;;;;;;;;;21.10;58.00;;;;;;5031351;28;19920;-67
2023/09/06 00:05:58;;;;;;;;;;;21.10;57.90;;;;;;5031322;28;19913;-67
2023/09/06 00:08:24;;;;;;;;;;;21.00;57.90;;;;;;5031183;28;19924;-67
2023/09/06 00:10:49;;;;;;;;;;;21.00;57.90;;;;;;5030954;28;19921;-67
2023/09/06 00:13:16;;;;;;;;;;;21.00;57.80;;;;;;5030959;28;19967;-68
2023/09/06 00:15:42;;;;;;;;;;;20.90;57.90;;;;;;5030922;28;20451;-66
2023/09/06 00:18:07;;;;;;;;;;;20.90;58.00;;;;;;5031078;28;19909;-68
2023/09/06 00:20:38;;;;;;;;;;;20.80;58.10;;;;;;5029951;28;19925;-68
2023/09/06 00:23:05;;;;;;;;;;;20.80;58.20;;;;;;5031129;28;19917;-68
2023/09/06 00:25:31;;;;;;;;;;;20.80;58.10;;;;;;5031063;28;19917;-68
2023/09/06 00:27:58;;;;;;;;;;;20.70;58.10;;;;;;5030977;28;19963;-68
2023/09/06 00:30:23;;;;;;;;;;;20.70;58.30;;;;;;5030881;28;19917;-68
2023/09/06 00:32:53;;;;;;;;;;;20.60;58.30;;;;;;5030637;28;20017;-68
2023/09/06 00:35:18;;;;;;;;;;;20.50;58.20;;;;;;5030748;28;19968;-68
2023/09/06 00:37:44;;;;;;;;;;;20.50;58.30;;;;;;5030139;28;19956;-68
2023/09/06 00:40:21;;;;;;;;;;;20.50;58.60;;;;;;5030719;28;19917;-68
2023/09/06 00:42:50;;;;;;;;;;;20.50;58.50;;;;;;5030507;28;20407;-68
2023/09/06 00:45:19;;;;;;;;;;;20.40;58.50;;;;;;5030540;28;20395;-68
2023/09/06 00:47:45;;;;;;;;;;;20.40;58.40;;;;;;5030731;28;20155;-68
2023/09/06 00:50:11;;;;;;;;;;;20.40;58.60;;;;;;5030343;28;19982;-68
2023/09/06 00:52:37;;;;;;;;;;;20.40;58.50;;;;;;5030574;28;19943;-68
2023/09/06 00:55:03;;;;;;;;;;;20.30;58.50;;;;;;5030996;28;19917;-68
2023/09/06 00:57:32;;;;;;;;;;;20.30;58.40;;;;;;5030435;28;20569;-68
2023/09/06 00:59:58;;;;;;;;;;;20.20;58.40;;;;;;5030726;28;19960;-68
2023/09/06 01:02:24;;;;;;;;;;;20.20;58.40;;;;;;5030299;28;20219;-68
2023/09/06 01:04:50;;;;;;;;;;;20.10;58.50;;;;;;5030538;28;20312;-68
2023/09/06 01:07:16;;;;;;;;;;;20.10;58.70;;;;;;5030254;28;19913;-67
2023/09/06 01:09:41;;;;;;;;;;;20.00;58.70;;;;;;5030539;28;19920;-68
2023/09/06 01:12:10;;;;;;;;;;;20.00;58.70;;;;;;5030373;28;20439;-67
2023/09/06 01:14:40;;;;;;;;;;;19.90;58.60;;;;;;5030550;28;19929;-68
2023/09/06 01:17:06;;;;;;;;;;;19.90;58.80;;;;;;5030395;28;20294;-67
2023/09/06 01:19:32;;;;;;;;;;;19.80;58.80;;;;;;5030209;28;19956;-67
2023/09/06 01:22:10;;;;;;;;;;;19.80;58.90;;;;;;5030061;28;20015;-67
2023/09/06 01:24:36;;;;;;;;;;;19.80;59.00;;;;;;5030246;28;19935;-66
2023/09/06 01:27:04;;;;;;;;;;;19.80;59.00;;;;;;5029831;28;19917;-67
2023/09/06 01:29:30;;;;;;;;;;;19.70;59.00;;;;;;5030066;28;20032;-67
2023/09/06 01:31:56;;;;;;;;;;;19.70;59.00;;;;;;5029853;28;19917;-67
2023/09/06 01:34:21;;;;;;;;;;;19.70;59.00;;;;;;5029974;28;20483;-68
2023/09/06 01:36:47;;;;;;;;;;;19.60;58.90;;;;;;5028429;28;19914;-68
2023/09/06 01:39:12;;;;;;;;;;;19.60;58.90;;;;;;5029846;28;19979;-68
2023/09/06 01:41:38;;;;;;;;;;;19.50;58.90;;;;;;5029951;28;19913;-68
2023/09/06 01:44:04;;;;;;;;;;;19.50;58.90;;;;;;5029934;28;19921;-68
2023/09/06 01:46:29;;;;;;;;;;;19.50;59.10;;;;;;5029550;28;19917;-68
2023/09/06 01:48:54;;;;;;;;;;;19.50;59.00;;;;;;5031890;28;19913;-68
2023/09/06 01:51:22;;;;;;;;;;;19.40;59.10;;;;;;5032330;28;19921;-68
2023/09/06 01:53:48;;;;;;;;;;;19.30;59.20;;;;;;5033828;28;19939;-68
2023/09/06 01:56:13;;;;;;;;;;;19.30;59.20;;;;;;5033735;28;19913;-68
2023/09/06 01:58:40;;;;;;;;;;;19.30;59.30;;;;;;5034041;28;19913;-68
2023/09/06 02:01:05;;;;;;;;;;;19.20;59.30;;;;;;5033527;28;19913;-68
2023/09/06 02:03:34;;;;;;;;;;;19.20;59.20;;;;;;5033612;28;19924;-68
2023/09/06 02:06:01;;;;;;;;;;;19.20;59.20;;;;;;5033488;28;19951;-68
2023/09/06 02:08:26;;;;;;;;;;;19.10;59.40;;;;;;5033546;28;20258;-68
2023/09/06 02:10:52;;;;;;;;;;;19.10;59.40;;;;;;5033547;28;19917;-67
2023/09/06 02:13:17;;;;;;;;;;;19.10;59.40;;;;;;5033588;28;20027;-67
2023/09/06 02:15:43;;;;;;;;;;;19.10;59.40;;;;;;5033416;28;19917;-68
2023/09/06 02:18:09;;;;;;;;;;;19.00;59.30;;;;;;5033544;28;19946;-67
2023/09/06 02:20:35;;;;;;;;;;;19.00;59.40;;;;;;5033106;28;19982;-67
2023/09/06 02:23:01;;;;;;;;;;;19.00;59.50;;;;;;5033301;28;19920;-67
2023/09/06 02:25:30;;;;;;;;;;;19.00;59.50;;;;;;5033064;28;19918;-67
2023/09/06 02:27:56;;;;;;;;;;;18.90;59.70;;;;;;5033161;28;20377;-68
2023/09/06 02:30:22;;;;;;;;;;;18.90;60.00;;;;;;5033140;28;19956;-67
2023/09/06 02:32:48;;;;;;;;;;;18.90;60.00;;;;;;5033078;28;20431;-67
2023/09/06 02:35:13;;;;;;;;;;;18.80;60.20;;;;;;5033106;28;19917;-67
2023/09/06 02:37:39;;;;;;;;;;;18.80;60.10;;;;;;5033035;28;19909;-67
2023/09/06 02:40:23;;;;;;;;;;;18.80;60.10;;;;;;5033380;28;19913;-67
2023/09/06 02:42:49;;;;;;;;;;;18.70;60.00;;;;;;5032804;28;20424;-67
2023/09/06 02:45:14;;;;;;;;;;;18.70;60.30;;;;;;5033306;28;19913;-67
2023/09/06 02:47:50;;;;;;;;;;;18.70;60.60;;;;;;5032920;28;19915;-67
2023/09/06 02:50:17;;;;;;;;;;;18.70;60.50;;;;;;5032879;28;19924;-67
2023/09/06 02:52:44;;;;;;;;;;;18.70;60.40;;;;;;5032747;28;19917;-67
2023/09/06 02:55:13;;;;;;;;;;;18.70;60.30;;;;;;5032622;28;20048;-68
2023/09/06 02:57:40;;;;;;;;;;;18.60;60.20;;;;;;5032542;28;19909;-67
2023/09/06 03:00:24;;;;;;;;;;;18.60;60.20;;;;;;5032232;28;19936;-67
2023/09/06 03:02:50;;;;;;;;;;;18.60;60.20;;;;;;5032757;28;19921;-67
2023/09/06 03:05:17;;;;;;;;;;;18.50;60.40;;;;;;5032694;28;19928;-68
2023/09/06 03:07:48;;;;;;;;;;;18.50;60.40;;;;;;5032262;28;19997;-67
2023/09/06 03:10:15;;;;;;;;;;;18.50;60.50;;;;;;5032392;28;19920;-67
2023/09/06 03:12:41;;;;;;;;;;;18.40;60.50;;;;;;5032244;28;19959;-67
2023/09/06 03:15:08;;;;;;;;;;;18.40;60.80;;;;;;5032635;28;20348;-67
2023/09/06 03:17:36;;;;;;;;;;;18.40;61.20;;;;;;5032260;28;19917;-67
2023/09/06 03:20:18;;;;;;;;;;;18.40;60.80;;;;;;5032595;28;19975;-67
2023/09/06 03:22:47;;;;;;;;;;;18.40;60.60;;;;;;5032088;28;20000;-66
2023/09/06 03:25:14;;;;;;;;;;;18.30;60.50;;;;;;5031984;28;19924;-67
2023/09/06 03:27:41;;;;;;;;;;;18.30;60.50;;;;;;5031961;28;20365;-67
2023/09/06 03:30:08;;;;;;;;;;;18.30;60.50;;;;;;5032557;28;20412;-67
2023/09/06 03:32:33;;;;;;;;;;;18.30;60.50;;;;;;5032018;28;20110;-67
2023/09/06 03:34:58;;;;;;;;;;;18.20;60.60;;;;;;5031926;28;20011;-67
2023/09/06 03:37:24;;;;;;;;;;;18.20;60.60;;;;;;5032355;28;19959;-67
2023/09/06 03:39:53;;;;;;;;;;;18.20;60.60;;;;;;5032183;28;19913;-68
2023/09/06 03:42:19;;;;;;;;;;;18.10;60.70;;;;;;5030571;28;20084;-67
2023/09/06 03:44:46;;;;;;;;;;;18.10;60.60;;;;;;5031817;28;19948;-67
2023/09/06 03:47:15;;;;;;;;;;;18.10;60.70;;;;;;5031681;28;20377;-67
2023/09/06 03:49:43;;;;;;;;;;;18.00;60.80;;;;;;5031840;28;19917;-68
2023/09/06 03:52:10;;;;;;;;;;;18.00;60.70;;;;;;5031467;28;19928;-67
2023/09/06 03:54:36;;;;;;;;;;;18.00;60.70;;;;;;5031664;28;20388;-67
2023/09/06 03:57:02;;;;;;;;;;;18.00;60.60;;;;;;5031567;28;19952;-67
2023/09/06 03:59:27;;;;;;;;;;;18.00;60.70;;;;;;5031416;28;20004;-67
2023/09/06 04:01:55;;;;;;;;;;;18.00;60.70;;;;;;5031301;28;19920;-67
2023/09/06 04:04:21;;;;;;;;;;;18.00;60.70;;;;;;5031478;28;19948;-67
2023/09/06 04:06:46;;;;;;;;;;;17.90;60.80;;;;;;5031298;28;19918;-67
2023/09/06 04:09:13;;;;;;;;;;;17.90;60.80;;;;;;5031613;28;19936;-67
2023/09/06 04:11:41;;;;;;;;;;;17.90;60.80;;;;;;5030659;28;20257;-68
2023/09/06 04:14:10;;;;;;;;;;;17.90;60.80;;;;;;5031377;28;19925;-68
2023/09/06 04:16:37;;;;;;;;;;;17.90;60.80;;;;;;5031199;28;19968;-66
2023/09/06 04:19:02;;;;;;;;;;;17.90;60.70;;;;;;5031748;28;20055;-67
2023/09/06 04:21:28;;;;;;;;;;;17.80;60.80;;;;;;5031002;28;20012;-67
2023/09/06 04:23:53;;;;;;;;;;;17.80;60.70;;;;;;5031253;28;19963;-68
2023/09/06 04:26:20;;;;;;;;;;;17.80;60.80;;;;;;5030884;28;19959;-68
2023/09/06 04:28:45;;;;;;;;;;;17.80;60.80;;;;;;5030943;28;20365;-67
2023/09/06 04:31:10;;;;;;;;;;;17.80;60.90;;;;;;5030869;28;20016;-68
2023/09/06 04:33:36;;;;;;;;;;;17.80;61.00;;;;;;5031290;28;19913;-67
2023/09/06 04:36:03;;;;;;;;;;;17.80;61.00;;;;;;5030702;28;19913;-68
2023/09/06 04:38:31;;;;;;;;;;;17.70;61.10;;;;;;5030907;28;20360;-67
2023/09/06 04:40:56;;;;;;;;;;;17.70;61.10;;;;;;5030492;28;20463;-67
2023/09/06 04:43:22;;;;;;;;;;;17.70;61.10;;;;;;5030847;28;20375;-68
2023/09/06 04:45:49;;;;;;;;;;;17.70;61.00;;;;;;5030288;28;20581;-68
2023/09/06 04:48:17;;;;;;;;;;;17.70;61.00;;;;;;5030435;28;19913;-68
2023/09/06 04:50:44;;;;;;;;;;;17.70;61.10;;;;;;5030481;28;20077;-67
2023/09/06 04:53:11;;;;;;;;;;;17.70;61.20;;;;;;5030676;28;19917;-68
2023/09/06 04:55:37;;;;;;;;;;;17.70;61.40;;;;;;5030230;28;19955;-67
2023/09/06 04:58:03;;;;;;;;;;;17.80;61.70;;;;;;5030513;28;19909;-67
2023/09/06 05:00:33;;;;;;;;;;;17.90;62.20;;;;;;5030167;28;19937;-68
2023/09/06 05:02:58;;;;;;;;;;;18.20;62.60;;;;;;5030347;28;20369;-67
2023/09/06 05:05:24;;;;;;;;;;;18.40;62.90;;;;;;5030189;28;19928;-68
2023/09/06 05:07:50;;;;;;;;;;;18.70;63.20;;;;;;5030069;28;19913;-68
2023/09/06 05:10:16;;;;;;;;;;;19.00;63.50;;;;;;5030438;28;20368;-68
2023/09/06 05:12:41;;;;;;;;;;;19.30;63.90;;;;;;5030571;28;19995;-68
2023/09/06 05:15:08;;;;;;;;;;;19.70;64.10;;;;;;5030909;28;19921;-68
2023/09/06 05:17:34;;;;;;;;;;;20.00;64.40;;;;;;5030431;28;19920;-68
2023/09/06 05:20:18;;;;;;;;;;;20.40;64.70;;;;;;5030850;28;20012;-67
2023/09/06 05:22:43;;;;;;;;;;;20.80;64.80;;;;;;5030594;28;20376;-67
2023/09/06 05:25:09;;;;;;;;;;;21.20;64.90;;;;;;5030249;28;20059;-67
2023/09/06 05:27:34;;;;;;;;;;;21.70;65.20;;;;;;5030255;28;19916;-67
2023/09/06 05:30:00;;;;;;;;;;;22.10;65.40;;;;;;5030578;28;19924;-68
2023/09/06 05:32:25;;;;;;;;;;;22.50;65.20;;;;;;5030271;28;19932;-67
2023/09/06 05:34:50;;;;;;;;;;;23.00;65.20;;;;;;5030104;28;19962;-67
2023/09/06 05:37:16;;;;;;;;;;;23.30;65.00;;;;;;5030302;28;19917;-67
2023/09/06 05:39:41;;;;;;;;;;;23.80;64.40;;;;;;5030264;28;20409;-67
2023/09/06 05:42:07;;;;;;;;;;;24.20;64.70;;;;;;5028688;28;19921;-67
2023/09/06 05:44:33;;;;;;;;;;;24.60;64.60;;;;;;5030319;28;20432;-67
2023/09/06 05:46:58;;;;;;;;;;;24.90;64.10;;;;;;5030192;28;19989;-68
2023/09/06 05:49:24;;;;;;;;;;;25.30;63.90;;;;;;5030294;28;19919;-67
2023/09/06 05:51:49;;;;;;;;;;;25.70;63.60;;;;;;5030024;28;20455;-67
2023/09/06 05:54:15;;;;;;;;;;;26.10;63.70;;;;;;5030032;28;20325;-67
2023/09/06 05:56:40;;;;;;;;;;;26.60;63.20;;;;;;5029694;28;19919;-68
2023/09/06 05:59:05;;;;;;;;;;;27.00;62.60;;;;;;5029759;28;19920;-68
2023/09/06 06:01:31;;;;;;;;;;;27.40;61.90;;;;;;5029938;28;20427;-68
2023/09/06 06:03:56;;;;;;;;;;;27.80;61.00;;;;;;5030060;28;19966;-68
2023/09/06 06:06:22;;;;;;;;;;;28.30;60.00;;;;;;5030087;28;19968;-67
2023/09/06 06:08:48;;;;;;;;;;;28.70;59.30;;;;;;5029407;28;19924;-67
2023/09/06 06:11:13;;;;;;;;;;;29.20;58.60;;;;;;5029912;28;19917;-67
2023/09/06 06:13:39;;;;;;;;;;;29.70;57.50;;;;;;5029486;28;19917;-67
2023/09/06 06:16:06;;;;;;;;;;;30.10;56.70;;;;;;5029635;28;19920;-67
2023/09/06 06:18:32;;;;;;;;;;;30.60;56.10;;;;;;5029633;28;20384;-67
2023/09/06 06:20:58;;;;;;;;;;;31.00;55.40;;;;;;5029579;28;19917;-67
2023/09/06 06:23:24;;;;;;;;;;;31.40;54.50;;;;;;5029577;28;19913;-67
2023/09/06 06:25:49;;;;;;;;;;;31.80;53.50;;;;;;5029133;28;19913;-67
2023/09/06 06:28:15;;;;;;;;;;;32.20;52.10;;;;;;5029539;28;19920;-67
2023/09/06 06:30:40;;;;;;;;;;;32.50;50.40;;;;;;5029307;28;19913;-67
2023/09/06 06:33:06;;;;;;;;;;;32.90;49.40;;;;;;5029326;28;20000;-67
2023/09/06 06:35:32;;;;;;;;;;;33.30;47.90;;;;;;5031974;28;19924;-67
2023/09/06 06:37:58;;;;;;;;;;;33.70;46.40;;;;;;5033259;28;19994;-67
2023/09/06 06:40:26;;;;;;;;;;;34.00;45.20;;;;;;5031708;28;19916;-69
2023/09/06 06:42:51;;;;;;;;;;;34.30;44.00;;;;;;5032656;28;19971;-66
2023/09/06 06:45:17;;;;;;;;;;;34.60;43.20;;;;;;5032782;28;20377;-68
2023/09/06 06:47:42;;;;;;;;;;;34.90;42.50;;;;;;5032704;28;20343;-67
2023/09/06 06:50:08;;;;;;;;;;;35.20;41.40;;;;;;5033131;28;20456;-67
2023/09/06 06:52:36;;;;;;;;;;;35.50;40.30;;;;;;5032658;28;19921;-68
2023/09/06 06:55:03;;;;;;;;;;;35.70;39.50;;;;;;5033381;28;20388;-69
2023/09/06 06:57:29;;;;;;;;;;;36.00;39.20;;;;;;5033163;28;19960;-68
2023/09/06 06:59:55;;;;;;;;;;;36.30;38.60;;;;;;5032440;28;19916;-68
2023/09/06 07:02:20;;;;;;;;;;;36.50;37.80;;;;;;5032704;28;19913;-68
2023/09/06 07:04:46;;;;;;;;;;;36.90;37.30;;;;;;5032927;28;19921;-66
2023/09/06 07:07:11;;;;;;;;;;;37.10;36.20;;;;;;5032451;28;20340;-67
2023/09/06 07:09:37;;;;;;;;;;;37.30;35.60;;;;;;5032661;28;19920;-69
2023/09/06 07:12:02;;;;;;;;;;;37.40;35.70;;;;;;5032579;28;19960;-68
2023/09/06 07:14:28;;;;;;;;;;;37.80;35.40;;;;;;5032256;28;20505;-67
2023/09/06 07:16:53;;;;;;;;;;;38.00;34.80;;;;;;5032186;28;19917;-66
2023/09/06 07:19:20;;;;;;;;;;;38.10;33.80;;;;;;5032578;28;19913;-67
2023/09/06 07:21:46;;;;;;;;;;;38.20;33.60;;;;;;5032099;28;19917;-67
2023/09/06 07:24:13;;;;;;;;;;;38.30;32.80;;;;;;5032579;28;20123;-67
2023/09/06 07:26:38;;;;;;;;;;;38.50;32.30;;;;;;5032321;28;20292;-67
2023/09/06 07:29:04;;;;;;;;;;;38.80;32.40;;;;;;5032493;28;20360;-67
2023/09/06 07:31:29;;;;;;;;;;;39.10;32.00;;;;;;5032181;28;20316;-68
2023/09/06 07:33:55;;;;;;;;;;;39.20;31.70;;;;;;5032123;28;19933;-68
2023/09/06 07:36:20;;;;;;;;;;;39.50;31.10;;;;;;5032137;28;20476;-68
2023/09/06 07:38:46;;;;;;;;;;;39.70;30.60;;;;;;5032264;28;20280;-68
2023/09/06 07:41:12;;;;;;;;;;;39.80;30.30;;;;;;5032505;28;20028;-68
2023/09/06 07:43:37;;;;;;;;;;;40.00;30.10;;;;;;5032361;28;19925;-68
2023/09/06 07:46:06;;;;;;;;;;;40.20;29.80;;;;;;5030566;28;19917;-67
2023/09/06 07:48:31;;;;;;;;;;;40.30;29.50;;;;;;5031750;28;20234;-68
2023/09/06 07:50:58;;;;;;;;;;;40.50;29.40;;;;;;5031604;28;20080;-67
2023/09/06 07:53:26;;;;;;;;;;;40.70;29.50;;;;;;5031811;28;19917;-67
2023/09/06 07:55:52;;;;;;;;;;;41.10;29.40;;;;;;5031743;28;20296;-67
2023/09/06 07:58:17;;;;;;;;;;;41.50;29.00;;;;;;5031712;28;19913;-67
2023/09/06 08:00:43;;;;;;;;;;;41.80;28.40;;;;;;5031685;28;19917;-67
2023/09/06 08:03:09;;;;;;;;;;;42.00;28.10;;;;;;5031615;28;19913;-67
2023/09/06 08:05:37;;;;;;;;;;;42.30;27.80;;;;;;5031446;28;20361;-67
2023/09/06 08:08:04;;;;;;;;;;;42.30;27.10;;;;;;5031682;28;20337;-67
2023/09/06 08:10:29;;;;;;;;;;;42.20;26.80;;;;;;5031455;28;19935;-67
2023/09/06 08:12:55;;;;;;;;;;;42.30;26.90;;;;;;5031181;28;19909;-66
2023/09/06 08:15:20;;;;;;;;;;;42.60;27.10;;;;;;5031324;28;19917;-66
2023/09/06 08:17:47;;;;;;;;;;;42.70;26.20;;;;;;5031417;28;20587;-67
2023/09/06 08:20:16;;;;;;;;;;;42.70;26.30;;;;;;5031437;28;19919;-67
2023/09/06 08:22:47;;;;;;;;;;;42.90;26.50;;;;;;5031096;28;19928;-68
2023/09/06 08:25:13;;;;;;;;;;;43.10;26.00;;;;;;5031687;28;20285;-67
2023/09/06 08:27:39;;;;;;;;;;;43.10;25.50;;;;;;5031076;28;19935;-68
2023/09/06 08:30:06;;;;;;;;;;;43.20;25.70;;;;;;5031415;28;19913;-67
2023/09/06 08:32:32;;;;;;;;;;;43.30;25.60;;;;;;5031253;28;19917;-67
2023/09/06 08:34:58;;;;;;;;;;;43.50;25.70;;;;;;5031195;28;20250;-67
2023/09/06 08:37:23;;;;;;;;;;;43.80;25.50;;;;;;5030931;28;19913;-67
2023/09/06 08:39:49;;;;;;;;;;;43.90;25.10;;;;;;5031366;28;20008;-67
2023/09/06 08:42:15;;;;;;;;;;;43.90;25.10;;;;;;5030765;28;19956;-67
2023/09/06 08:44:43;;;;;;;;;;;44.00;25.10;;;;;;5031075;28;19920;-67
2023/09/06 08:47:10;;;;;;;;;;;44.20;24.80;;;;;;5030633;28;19913;-65
2023/09/06 08:49:37;;;;;;;;;;;44.20;24.70;;;;;;5030830;28;19979;-67
2023/09/06 08:52:03;;;;;;;;;;;44.20;25.00;;;;;;5029715;28;19921;-66
2023/09/06 08:54:28;;;;;;;;;;;44.30;24.70;;;;;;5030195;28;19960;-68
2023/09/06 08:56:55;;;;;;;;;;;44.40;24.40;;;;;;5027855;28;19971;-67
2023/09/06 08:59:20;;;;;;;;;;;44.40;24.40;;;;;;5030119;28;19960;-67
2023/09/06 09:01:46;;;;;;;;;;;44.50;24.50;;;;;;5028161;28;19959;-67
2023/09/06 09:04:12;;;;;;;;;;;44.60;24.30;;;;;;5029781;28;20334;-67
2023/09/06 09:06:43;;;;;;;;;;;44.70;23.80;;;;;;5029735;28;19943;-67
2023/09/06 09:09:13;;;;;;;;;;;44.50;23.90;;;;;;5029810;28;20373;-68
2023/09/06 09:11:42;;;;;;;;;;;44.60;24.20;;;;;;5029408;28;19917;-68
2023/09/06 09:14:17;;;;;;;;;;;44.70;24.30;;;;;;5029790;28;19956;-68
2023/09/06 09:16:42;;;;;;;;;;;44.80;23.80;;;;;;5029350;28;19952;-67
2023/09/06 09:19:09;;;;;;;;;;;44.80;23.90;;;;;;5029792;28;19909;-67
2023/09/06 09:21:37;;;;;;;;;;;44.90;23.70;;;;;;5029637;28;19956;-67
2023/09/06 09:24:04;;;;;;;;;;;44.90;23.60;;;;;;5029394;28;19909;-67
2023/09/06 09:26:32;;;;;;;;;;;44.80;23.50;;;;;;5029230;28;20325;-66
2023/09/06 09:29:01;;;;;;;;;;;44.70;23.80;;;;;;5029352;28;19913;-67
2023/09/06 09:31:27;;;;;;;;;;;44.80;23.70;;;;;;5029184;28;19917;-67
2023/09/06 09:33:52;;;;;;;;;;;44.80;23.70;;;;;;5029446;28;19936;-67
2023/09/06 09:36:18;;;;;;;;;;;44.80;23.90;;;;;;5029174;28;19974;-67
2023/09/06 09:38:50;;;;;;;;;;;45.00;23.90;;;;;;5029232;28;19984;-67
2023/09/06 09:41:15;;;;;;;;;;;45.20;23.90;;;;;;5029095;28;20466;-67
2023/09/06 09:43:40;;;;;;;;;;;45.10;23.60;;;;;;5029074;28;19967;-67
2023/09/06 09:46:07;;;;;;;;;;;45.20;23.50;;;;;;5028928;28;20007;-67
2023/09/06 09:48:33;;;;;;;;;;;45.20;23.20;;;;;;5028962;28;19910;-67
2023/09/06 09:51:01;;;;;;;;;;;45.30;22.90;;;;;;4968346;28;1728522;-68
2023/09/06 09:53:28;;;;;;;;;;;45.30;23.10;;;;;;5030285;28;19939;-67
2023/09/06 09:55:54;;;;;;;;;;;45.30;23.30;;;;;;5029892;28;19917;-67
2023/09/06 09:58:20;;;;;;;;;;;45.40;23.10;;;;;;5029733;28;20473;-67
2023/09/06 10:00:52;;;;;;;;;;;45.30;22.70;;;;;;5029574;28;20004;-67
2023/09/06 10:03:18;;;;;;;;;;;45.30;22.90;;;;;;5029655;28;20063;-67
2023/09/06 10:05:45;;;;;;;;;;;45.30;23.30;;;;;;5029606;28;19913;-66
2023/09/06 10:08:11;;;;;;;;;;;45.30;23.00;;;;;;5029624;28;20000;-67
2023/09/06 10:10:37;;;;;;;;;;;45.20;23.00;;;;;;5032582;28;20237;-66
2023/09/06 10:13:07;;;;;;;;;;;45.20;23.00;;;;;;5033485;28;19921;-67
2023/09/06 10:15:33;;;;;;;;;;;45.30;23.10;;;;;;5033341;28;19921;-67
2023/09/06 10:17:59;;;;;;;;;;;45.20;22.70;;;;;;5033621;28;19975;-67
2023/09/06 10:20:26;;;;;;;;;;;45.20;23.00;;;;;;5033739;28;19917;-67
2023/09/06 10:22:55;;;;;;;;;;;45.10;22.80;;;;;;5033298;28;19956;-67
2023/09/06 10:25:21;;;;;;;;;;;44.80;22.40;;;;;;5033302;28;19929;-67
2023/09/06 10:27:50;;;;;;;;;;;44.70;22.80;;;;;;5033090;28;19913;-67
2023/09/06 10:30:19;;;;;;;;;;;44.60;23.00;;;;;;5033231;28;19917;-66
2023/09/06 10:32:45;;;;;;;;;;;44.60;23.20;;;;;;5033075;28;20372;-67
2023/09/06 10:35:20;;;;;;;;;;;44.40;22.90;;;;;;5033029;28;19921;-66
2023/09/06 10:38:05;;;;;;;;;;;44.30;23.20;;;;;;5033466;28;19963;-67
2023/09/06 10:40:51;;;;;;;;;;;44.30;22.90;;;;;;5033269;28;19999;-66
2023/09/06 10:43:17;;;;;;;;;;;44.20;23.00;;;;;;5032820;28;19909;-66
2023/09/06 10:45:56;;;;;;;;;;;44.30;23.10;;;;;;5031331;28;19917;-67
2023/09/06 10:48:22;;;;;;;;;;;44.20;22.90;;;;;;5032930;28;20015;-66
2023/09/06 10:51:19;;;;;;;;;;;44.20;23.30;;;;;;5032888;28;19964;-66
2023/09/06 10:53:47;;;;;;;;;;;44.30;23.50;;;;;;5020672;28;20003;-67
2023/09/06 10:56:12;;;;;;;;;;;44.50;23.40;;;;;;5032783;28;19917;-67
2023/09/06 10:58:38;;;;;;;;;;;44.60;23.40;;;;;;5032818;28;20425;-67
2023/09/06 11:01:13;;;;;;;;;;;44.60;23.00;;;;;;5032912;28;19914;-66
2023/09/06 11:03:39;;;;;;;;;;;44.30;22.40;;;;;;5032967;28;20059;-66
2023/09/06 11:06:05;;;;;;;;;;;43.90;23.00;;;;;;5032749;28;19974;-66
2023/09/06 11:08:30;;;;;;;;;;;43.90;23.20;;;;;;5032633;28;20755;-66
2023/09/06 11:11:00;;;;;;;;;;;44.00;23.40;;;;;;5031189;28;19913;-67
2023/09/06 11:13:28;;;;;;;;;;;43.90;23.40;;;;;;5032581;28;20052;-67
2023/09/06 11:15:55;;;;;;;;;;;44.10;23.30;;;;;;5032343;28;19976;-67
2023/09/06 11:18:20;;;;;;;;;;;44.20;23.40;;;;;;5032451;28;19920;-67
2023/09/06 11:20:47;;;;;;;;;;;44.20;22.90;;;;;;5031951;28;19913;-67
2023/09/06 11:23:12;;;;;;;;;;;44.20;23.00;;;;;;5032543;28;19917;-67
2023/09/06 11:25:38;;;;;;;;;;;44.20;23.20;;;;;;5032105;28;20388;-66
2023/09/06 11:28:14;;;;;;;;;;;44.20;23.10;;;;;;5032257;28;19921;-67
2023/09/06 11:30:39;;;;;;;;;;;44.20;22.80;;;;;;5032402;28;19920;-67
2023/09/06 11:33:10;;;;;;;;;;;44.20;23.00;;;;;;5032057;28;20231;-67
2023/09/06 11:35:40;;;;;;;;;;;44.20;22.80;;;;;;5031952;28;19921;-67
2023/09/06 11:38:09;;;;;;;;;;;44.00;23.00;;;;;;5032009;28;19964;-67
2023/09/06 11:40:35;;;;;;;;;;;44.10;22.90;;;;;;5031937;28;19917;-67
2023/09/06 11:43:04;;;;;;;;;;;43.90;22.70;;;;;;5031903;28;20373;-67
2023/09/06 11:45:31;;;;;;;;;;;43.80;22.80;;;;;;5031913;28;20343;-67
2023/09/06 11:47:59;;;;;;;;;;;43.70;23.20;;;;;;5031696;28;19913;-67
2023/09/06 11:50:29;;;;;;;;;;;43.70;22.90;;;;;;5031724;28;19913;-67
2023/09/06 11:52:56;;;;;;;;;;;43.60;22.50;;;;;;5031723;28;19909;-67
2023/09/06 11:55:22;;;;;;;;;;;43.40;22.70;;;;;;5031596;28;19921;-65
2023/09/06 11:57:52;;;;;;;;;;;43.40;22.90;;;;;;5031751;28;19909;-69
2023/09/06 12:00:27;;;;;;;;;;;43.40;22.50;;;;;;5031565;28;20003;-67
2023/09/06 12:03:00;;;;;;;;;;;43.20;22.50;;;;;;5031414;28;20465;-67
2023/09/06 12:05:26;;;;;;;;;;;43.20;22.50;;;;;;5031498;28;20281;-67
2023/09/06 12:07:55;;;;;;;;;;;43.00;21.80;;;;;;5031123;28;19913;-67
2023/09/06 12:10:23;;;;;;;;;;;42.60;21.90;;;;;;5031489;28;19913;-67
2023/09/06 12:12:49;;;;;;;;;;;42.20;22.10;;;;;;5031232;28;19913;-67
2023/09/06 12:15:19;;;;;;;;;;;41.80;22.30;;;;;;5031104;28;19917;-67
2023/09/06 12:17:47;;;;;;;;;;;41.50;22.90;;;;;;5029746;28;19914;-67
2023/09/06 12:20:18;;;;;;;;;;;41.30;23.30;;;;;;5030995;28;19917;-67
2023/09/06 12:22:44;;;;;;;;;;;41.30;23.50;;;;;;5030722;28;19987;-68
2023/09/06 12:25:11;;;;;;;;;;;41.20;23.50;;;;;;5031187;28;19914;-68
2023/09/06 12:27:37;;;;;;;;;;;41.00;23.20;;;;;;5031004;28;19920;-68
2023/09/06 12:30:03;;;;;;;;;;;40.80;23.40;;;;;;5031686;28;19913;-67
2023/09/06 12:32:31;;;;;;;;;;;40.60;23.50;;;;;;5030345;28;19913;-68
2023/09/06 12:34:57;;;;;;;;;;;40.30;23.60;;;;;;5031445;28;19923;-68
2023/09/06 12:37:24;;;;;;;;;;;40.10;24.10;;;;;;5031209;28;19996;-68
2023/09/06 12:39:50;;;;;;;;;;;40.10;24.30;;;;;;5031108;28;19920;-68
2023/09/06 12:42:15;;;;;;;;;;;40.00;24.50;;;;;;5030699;28;20289;-67
2023/09/06 12:44:41;;;;;;;;;;;40.00;24.40;;;;;;5030922;28;20008;-67
2023/09/06 12:47:06;;;;;;;;;;;39.90;24.30;;;;;;5030913;28;19949;-68
2023/09/06 12:49:31;;;;;;;;;;;39.80;24.30;;;;;;5030883;28;19921;-67
2023/09/06 12:51:57;;;;;;;;;;;39.70;24.30;;;;;;5030716;28;20391;-67
2023/09/06 12:54:23;;;;;;;;;;;39.40;24.50;;;;;;5030796;28;19921;-67
2023/09/06 12:56:49;;;;;;;;;;;39.30;24.70;;;;;;5030311;28;19913;-67
2023/09/06 12:59:15;;;;;;;;;;;39.10;24.70;;;;;;5030656;28;19920;-67
2023/09/06 13:01:40;;;;;;;;;;;39.00;24.90;;;;;;5030141;28;19936;-67
2023/09/06 13:04:06;;;;;;;;;;;38.90;24.80;;;;;;5030722;28;19913;-67
2023/09/06 13:06:31;;;;;;;;;;;38.80;24.90;;;;;;5030394;28;19917;-67
2023/09/06 13:08:57;;;;;;;;;;;38.70;25.20;;;;;;5030423;28;19942;-67
2023/09/06 13:11:22;;;;;;;;;;;38.70;25.20;;;;;;5030254;28;20023;-68
2023/09/06 13:13:48;;;;;;;;;;;38.60;25.20;;;;;;5030030;28;19913;-68
2023/09/06 13:16:13;;;;;;;;;;;38.50;25.10;;;;;;5030113;28;20075;-67
2023/09/06 13:18:41;;;;;;;;;;;38.50;25.30;;;;;;5030198;28;20246;-67
2023/09/06 13:21:06;;;;;;;;;;;38.50;25.10;;;;;;5030036;28;19920;-68
2023/09/06 13:23:32;;;;;;;;;;;38.30;25.10;;;;;;5028939;28;19917;-68
2023/09/06 13:25:59;;;;;;;;;;;38.30;24.90;;;;;;5029969;28;20008;-68
2023/09/06 13:28:24;;;;;;;;;;;38.00;24.80;;;;;;5030184;28;20335;-68
2023/09/06 13:30:50;;;;;;;;;;;38.00;24.90;;;;;;5029899;28;19967;-68
2023/09/06 13:33:15;;;;;;;;;;;38.00;25.10;;;;;;5030007;28;19913;-68
2023/09/06 13:35:41;;;;;;;;;;;37.90;24.70;;;;;;5029813;28;19948;-68
2023/09/06 13:38:06;;;;;;;;;;;37.80;24.60;;;;;;5030321;28;19916;-68
2023/09/06 13:40:32;;;;;;;;;;;37.80;24.90;;;;;;5029742;28;20077;-68
2023/09/06 13:42:57;;;;;;;;;;;37.70;24.90;;;;;;5030132;28;19921;-68
2023/09/06 13:45:23;;;;;;;;;;;37.50;24.90;;;;;;5028877;28;20377;-68
2023/09/06 13:47:49;;;;;;;;;;;37.30;25.10;;;;;;5028164;28;19913;-69
2023/09/06 13:50:14;;;;;;;;;;;37.00;25.50;;;;;;5029745;28;19924;-68
2023/09/06 13:52:40;;;;;;;;;;;36.70;25.90;;;;;;5028603;28;19917;-69
2023/09/06 13:55:05;;;;;;;;;;;36.40;26.40;;;;;;5030161;28;20486;-69
2023/09/06 13:57:31;;;;;;;;;;;36.20;26.70;;;;;;5029728;28;19919;-69
2023/09/06 13:59:56;;;;;;;;;;;36.00;27.20;;;;;;5030168;28;19913;-69
2023/09/06 14:02:22;;;;;;;;;;;35.80;27.60;;;;;;5028245;28;19923;-69
2023/09/06 14:04:47;;;;;;;;;;;35.60;28.00;;;;;;5028207;28;19917;-67
2023/09/06 14:07:13;;;;;;;;;;;35.50;28.50;;;;;;5029948;28;19913;-68
2023/09/06 14:09:39;;;;;;;;;;;35.30;28.80;;;;;;5029811;28;19920;-68
2023/09/06 14:12:04;;;;;;;;;;;35.20;29.10;;;;;;5029595;28;19913;-68
2023/09/06 14:14:30;;;;;;;;;;;35.20;29.20;;;;;;5027910;28;19947;-68